Douglas Lake, Canada
Current Conditions -  °F | °C
As of 3:00 AM on Saturday 01 Nov 2014 (Local Time) from CYLW Reporting Station
Few Clouds Few Clouds  
Wind Chill: 39°   Ceiling: Unl
Heat Index: 39°   Visibility: 9mi
Dew Point: 37°   Wind: 3mph
Humidity: 93%   Direction: 60°ENE
Pressure: 29.82"   Gusts: NA
Location:  50.15°N, 120.18°W
Report Text: CYLW 011000Z AUTO 06003KT 9SM FEW210 04/03 A2982 RMK SLP108
Loading
Personal Weather Stations






























Interactive Weather Map
Tropical Storm Tracking
New forecast layout! Learn more

10-Day Weather Forecast

Advertisements
Track Severe Weather on mobile